createdAt,value
2022-12-08T00:01:50.353Z,13.07
2022-12-08T00:04:19.149Z,13.43
2022-12-08T00:07:08.430Z,13.70
2022-12-08T00:09:39.899Z,13.32
2022-12-08T00:12:09.913Z,13.55
2022-12-08T00:14:39.724Z,13.25
2022-12-08T00:17:09.911Z,13.10
2022-12-08T00:19:39.087Z,13.88
2022-12-08T00:22:07.948Z,13.80
2022-12-08T00:24:39.601Z,13.45
2022-12-08T00:27:15.468Z,13.77
2022-12-08T00:29:44.955Z,14.32
2022-12-08T00:32:13.444Z,14.07
2022-12-08T00:34:41.941Z,13.65
2022-12-08T00:37:10.358Z,13.30
2022-12-08T00:39:40.141Z,13.88
2022-12-08T00:42:14.391Z,13.65
2022-12-08T00:44:43.068Z,13.35
2022-12-08T00:47:11.479Z,14.63
2022-12-08T00:49:39.852Z,12.95
2022-12-08T00:52:08.306Z,13.23
2022-12-08T00:54:36.820Z,13.50
2022-12-08T00:57:06.587Z,12.85
2022-12-08T00:59:34.959Z,12.90
2022-12-08T01:02:05.280Z,13.05
2022-12-08T01:04:33.640Z,15.05
2022-12-08T01:07:02.021Z,13.57
2022-12-08T01:09:30.401Z,14.45
2022-12-08T01:11:58.791Z,13.63
2022-12-08T01:14:28.700Z,14.45
2022-12-08T01:16:57.183Z,15.07
2022-12-08T01:19:25.655Z,15.32
2022-12-08T01:21:54.048Z,14.23
2022-12-08T01:24:22.880Z,14.07
2022-12-08T01:26:52.157Z,14.15
2022-12-08T01:29:20.515Z,14.45
2022-12-08T01:31:50.329Z,12.85
2022-12-08T01:34:18.728Z,13.73
2022-12-08T01:36:48.062Z,13.85
2022-12-08T01:39:17.564Z,13.95
2022-12-08T01:41:46.421Z,14.73
2022-12-08T01:44:33.561Z,13.23
2022-12-08T01:47:03.314Z,14.38
2022-12-08T01:49:32.904Z,14.10
2022-12-08T01:52:04.030Z,13.57
2022-12-08T01:54:33.796Z,14.48
2022-12-08T01:57:03.579Z,14.60
2022-12-08T01:59:32.374Z,13.93
2022-12-08T02:02:00.895Z,14.68
2022-12-08T02:04:30.629Z,14.48
2022-12-08T02:07:03.613Z,13.82
2022-12-08T02:09:35.345Z,14.57
2022-12-08T02:12:03.770Z,14.55
2022-12-08T02:14:32.358Z,13.63
2022-12-08T02:17:05.638Z,13.75
2022-12-08T02:19:50.137Z,14.50
2022-12-08T02:22:22.149Z,13.60
2022-12-08T02:24:57.914Z,12.57
2022-12-08T02:27:34.770Z,13.23
2022-12-08T02:30:12.399Z,13.20
2022-12-08T02:32:59.357Z,14.40
2022-12-08T02:35:31.605Z,13.80
2022-12-08T02:38:07.127Z,14.25
2022-12-08T02:40:38.491Z,14.18
2022-12-08T02:43:09.293Z,15.50
2022-12-08T02:45:40.913Z,13.82
2022-12-08T02:48:10.443Z,15.23
2022-12-08T02:50:40.191Z,13.85
2022-12-08T02:55:41.903Z,14.18
2022-12-08T02:58:22.239Z,13.52
2022-12-08T03:00:57.320Z,13.55
2022-12-08T03:03:28.980Z,13.05
2022-12-08T03:06:03.015Z,13.93
2022-12-08T03:08:35.007Z,14.20
2022-12-08T03:11:04.547Z,14.35
2022-12-08T03:13:35.996Z,14.13
2022-12-08T03:16:06.473Z,14.40
2022-12-08T03:18:38.483Z,13.45
2022-12-08T03:21:09.136Z,13.98
2022-12-08T03:23:39.698Z,13.43
2022-12-08T03:26:10.879Z,14.00
2022-12-08T03:28:39.445Z,14.07
2022-12-08T03:31:09.625Z,13.63
2022-12-08T03:33:39.829Z,13.75
2022-12-08T03:36:12.108Z,13.32
2022-12-08T03:38:40.951Z,13.27
2022-12-08T03:41:23.112Z,13.32
2022-12-08T03:43:52.262Z,14.25
2022-12-08T03:48:49.406Z,13.20
2022-12-08T03:51:19.416Z,13.02
2022-12-08T03:53:48.353Z,12.68
2022-12-08T03:56:18.222Z,12.70
2022-12-08T03:58:46.600Z,12.80
2022-12-08T04:01:15.232Z,12.10
2022-12-08T04:03:43.897Z,11.60
2022-12-08T04:06:12.382Z,12.20
2022-12-08T04:08:42.409Z,11.52
2022-12-08T04:11:11.145Z,12.02
2022-12-08T04:13:40.255Z,11.85
2022-12-08T04:16:09.043Z,12.43
2022-12-08T04:18:38.535Z,11.93
2022-12-08T04:21:07.072Z,12.30
2022-12-08T04:23:35.476Z,11.90
2022-12-08T04:26:06.551Z,10.68
2022-12-08T04:28:35.093Z,11.88
2022-12-08T04:31:03.664Z,9.73
2022-12-08T04:33:32.225Z,12.20
2022-12-08T04:36:00.853Z,12.25
2022-12-08T04:38:29.509Z,11.50
2022-12-08T04:40:57.941Z,11.82
2022-12-08T04:43:27.693Z,11.57
2022-12-08T04:45:56.058Z,11.82
2022-12-08T04:48:24.435Z,11.10
2022-12-08T04:50:52.859Z,11.27
2022-12-08T04:53:21.525Z,11.35
2022-12-08T04:55:49.954Z,12.13
2022-12-08T04:58:19.295Z,10.95
2022-12-08T05:00:49.309Z,11.50
2022-12-08T05:03:22.511Z,11.85
2022-12-08T05:05:53.607Z,10.90
2022-12-08T05:08:22.089Z,11.57
2022-12-08T05:10:50.531Z,10.95
2022-12-08T05:13:18.977Z,11.15
2022-12-08T05:15:49.962Z,11.57
2022-12-08T05:18:18.359Z,10.73
2022-12-08T05:20:46.677Z,11.25
2022-12-08T05:23:15.138Z,11.90
2022-12-08T05:25:43.712Z,11.98
2022-12-08T05:28:40.166Z,11.27
2022-12-08T05:31:02.077Z,11.27
2022-12-08T05:33:30.458Z,10.85
2022-12-08T05:35:58.807Z,11.38
2022-12-08T05:38:27.223Z,11.55
2022-12-08T05:40:55.613Z,11.80
2022-12-08T05:43:23.959Z,11.80
2022-12-08T05:45:53.500Z,11.48
2022-12-08T05:48:23.329Z,13.55
2022-12-08T05:50:52.539Z,10.65
2022-12-08T05:53:22.641Z,12.50
2022-12-08T05:55:52.932Z,11.40
2022-12-08T05:58:22.031Z,11.63
2022-12-08T06:00:51.000Z,11.20
2022-12-08T06:03:20.270Z,11.63
2022-12-08T06:05:50.191Z,11.63
2022-12-08T06:08:19.062Z,11.52
2022-12-08T06:10:47.985Z,11.52
2022-12-08T06:13:16.839Z,11.27
2022-12-08T06:15:45.211Z,11.88
2022-12-08T06:18:13.576Z,11.82
2022-12-08T06:20:41.932Z,11.52
2022-12-08T06:23:11.650Z,11.82
2022-12-08T06:25:40.199Z,11.27
2022-12-08T06:28:13.169Z,11.48
2022-12-08T06:30:41.549Z,12.13
2022-12-08T06:33:09.902Z,11.65
2022-12-08T06:35:39.371Z,12.27
2022-12-08T06:38:07.707Z,17.33
2022-12-08T06:40:37.455Z,15.52
2022-12-08T06:43:05.978Z,11.98
2022-12-08T06:45:34.405Z,13.65
2022-12-08T06:48:03.184Z,16.88
2022-12-08T06:50:32.651Z,12.88
2022-12-08T06:53:05.208Z,11.48
2022-12-08T06:55:57.874Z,13.23
2022-12-08T06:58:24.382Z,11.90
2022-12-08T07:00:54.464Z,11.02
2022-12-08T07:03:23.090Z,10.73
2022-12-08T07:05:51.683Z,10.82
2022-12-08T07:08:20.129Z,10.70
2022-12-08T07:10:48.745Z,10.43
2022-12-08T07:13:17.145Z,11.18
2022-12-08T07:15:46.908Z,10.48
2022-12-08T07:18:15.299Z,10.02
2022-12-08T07:20:43.705Z,9.63
2022-12-08T07:23:12.056Z,11.20
2022-12-08T07:25:40.445Z,10.80
2022-12-08T07:28:12.210Z,10.38
2022-12-08T07:30:40.654Z,10.85
2022-12-08T07:33:10.693Z,10.20
2022-12-08T07:35:46.341Z,11.05
2022-12-08T07:38:17.494Z,11.45
2022-12-08T07:40:45.865Z,10.57
2022-12-08T07:43:14.222Z,10.60
2022-12-08T07:45:44.342Z,9.93
2022-12-08T07:48:14.146Z,10.77
2022-12-08T07:50:43.632Z,10.52
2022-12-08T07:53:12.418Z,11.07
2022-12-08T07:55:43.124Z,10.15
2022-12-08T07:58:13.122Z,11.18
2022-12-08T08:00:41.555Z,11.90
2022-12-08T08:03:11.784Z,11.88
2022-12-08T08:05:41.662Z,11.38
2022-12-08T08:08:10.079Z,10.80
2022-12-08T08:10:38.551Z,11.45
2022-12-08T08:13:07.050Z,10.98
2022-12-08T08:15:35.569Z,11.02
2022-12-08T08:18:04.077Z,10.85
2022-12-08T08:20:32.466Z,10.52
2022-12-08T08:23:02.213Z,10.45
2022-12-08T08:25:30.597Z,11.02
2022-12-08T08:27:58.943Z,10.63
2022-12-08T08:30:27.351Z,10.50
2022-12-08T08:32:55.700Z,10.55
2022-12-08T08:35:24.157Z,10.60
2022-12-08T08:37:53.054Z,10.55
2022-12-08T08:40:22.887Z,9.95
2022-12-08T08:42:51.220Z,10.00
2022-12-08T08:45:19.688Z,10.07
2022-12-08T08:47:48.057Z,9.52
2022-12-08T08:50:16.484Z,10.30
2022-12-08T08:52:44.891Z,9.98
2022-12-08T08:55:13.426Z,10.05
2022-12-08T08:57:43.225Z,9.88
2022-12-08T09:00:12.213Z,9.18
2022-12-08T09:02:40.700Z,9.40
2022-12-08T09:05:09.438Z,9.13
2022-12-08T09:07:38.026Z,8.93
2022-12-08T09:10:07.173Z,8.82
2022-12-08T09:12:35.792Z,9.10
2022-12-08T09:15:05.729Z,8.57
2022-12-08T09:17:34.318Z,9.00
2022-12-08T09:20:05.569Z,9.27
2022-12-08T09:22:34.252Z,9.35
2022-12-08T09:25:02.697Z,8.55
2022-12-08T09:27:31.159Z,9.32
2022-12-08T09:29:59.579Z,9.02
2022-12-08T09:32:29.351Z,9.50
2022-12-08T09:34:57.738Z,9.35
2022-12-08T09:37:26.256Z,8.63
2022-12-08T09:39:54.675Z,8.43
2022-12-08T09:42:28.115Z,9.07
2022-12-08T09:45:00.085Z,8.93
2022-12-08T09:47:35.699Z,8.50
2022-12-08T09:50:07.539Z,8.10
2022-12-08T09:52:38.437Z,8.73
2022-12-08T09:55:13.796Z,8.70
2022-12-08T09:57:42.356Z,7.97
2022-12-08T10:00:13.982Z,8.00
2022-12-08T10:02:44.356Z,7.90
2022-12-08T10:05:14.999Z,8.52
2022-12-08T10:07:46.958Z,8.10
2022-12-08T10:10:22.488Z,8.38
2022-12-08T10:12:53.900Z,9.77
2022-12-08T10:15:31.728Z,8.82
2022-12-08T10:18:03.017Z,7.85
2022-12-08T10:20:38.027Z,8.15
2022-12-08T10:23:10.771Z,7.88
2022-12-08T10:25:41.169Z,8.10
2022-12-08T10:28:10.404Z,8.80
2022-12-08T10:30:38.964Z,8.70
2022-12-08T10:33:11.766Z,8.45
2022-12-08T10:35:56.310Z,9.13
2022-12-08T10:38:27.617Z,8.15
2022-12-08T10:40:59.179Z,7.90
2022-12-08T10:43:28.981Z,8.13
2022-12-08T10:45:57.644Z,7.53
2022-12-08T10:48:28.822Z,7.95
2022-12-08T10:50:58.096Z,8.88
2022-12-08T10:53:28.677Z,8.25
2022-12-08T10:56:07.570Z,7.95
2022-12-08T10:58:37.000Z,8.52
2022-12-08T11:01:08.588Z,9.52
2022-12-08T11:03:41.222Z,9.02
2022-12-08T11:06:14.992Z,8.77
2022-12-08T11:11:16.877Z,9.50
2022-12-08T11:13:46.547Z,8.68
2022-12-08T11:16:16.359Z,9.10
2022-12-08T11:18:48.182Z,9.27
2022-12-08T11:21:18.673Z,8.27
2022-12-08T11:23:49.541Z,8.82
2022-12-08T11:26:22.796Z,8.23
2022-12-08T11:28:51.246Z,9.00
2022-12-08T11:31:24.514Z,8.45
2022-12-08T11:33:54.787Z,8.35
2022-12-08T11:36:24.745Z,8.50
2022-12-08T11:38:57.256Z,7.70
2022-12-08T11:41:28.132Z,8.05
2022-12-08T11:44:00.665Z,9.15
2022-12-08T11:46:34.566Z,8.20
2022-12-08T11:49:07.022Z,8.63
2022-12-08T11:51:38.154Z,8.40
2022-12-08T11:54:20.364Z,7.68
2022-12-08T11:56:50.481Z,9.15
2022-12-08T11:59:21.962Z,8.93
2022-12-08T12:01:51.700Z,7.85
2022-12-08T12:04:24.722Z,7.45
2022-12-08T12:07:11.073Z,8.27
2022-12-08T12:09:43.690Z,7.72
2022-12-08T12:12:21.135Z,7.35
2022-12-08T12:15:15.666Z,6.57
2022-12-08T12:17:46.571Z,6.97
2022-12-08T12:20:18.526Z,6.78
2022-12-08T12:22:48.471Z,7.47
2022-12-08T12:25:21.513Z,6.63
2022-12-08T12:28:04.071Z,7.28
2022-12-08T12:30:36.577Z,7.38
2022-12-08T12:33:12.108Z,7.90
2022-12-08T12:35:43.861Z,6.88
2022-12-08T12:38:34.770Z,6.78
2022-12-08T12:41:04.126Z,8.48
2022-12-08T12:43:33.971Z,8.95
2022-12-08T12:46:26.388Z,8.20
2022-12-08T12:48:55.327Z,9.77
2022-12-08T12:51:57.817Z,9.38
2022-12-08T12:54:27.584Z,11.00
2022-12-08T12:56:57.222Z,7.60
2022-12-08T12:59:43.596Z,8.65
2022-12-08T13:02:21.934Z,7.75
2022-12-08T13:04:57.647Z,6.88
2022-12-08T13:07:29.127Z,7.65
2022-12-08T13:10:08.821Z,8.60
2022-12-08T13:12:37.409Z,7.85
2022-12-08T13:15:09.341Z,7.32
2022-12-08T13:17:42.550Z,6.65
2022-12-08T13:20:36.804Z,8.00
2022-12-08T13:23:28.275Z,7.45
2022-12-08T13:26:15.651Z,7.00
2022-12-08T13:29:03.864Z,7.18
2022-12-08T13:31:41.683Z,6.28
2022-12-08T13:34:19.179Z,8.60
2022-12-08T13:36:55.772Z,6.45
2022-12-08T13:39:28.698Z,7.82
2022-12-08T13:42:08.541Z,7.03
2022-12-08T13:47:35.315Z,6.90
2022-12-08T13:59:12.569Z,6.47
2022-12-08T14:01:46.073Z,7.70
2022-12-08T14:04:42.581Z,7.78
2022-12-08T14:07:16.826Z,8.65
2022-12-08T14:09:46.551Z,7.63
2022-12-08T14:12:23.065Z,16.27
2022-12-08T14:15:06.723Z,8.15
2022-12-08T14:17:36.778Z,8.98
2022-12-08T14:20:07.901Z,6.88
2022-12-08T14:22:43.312Z,7.95
2022-12-08T14:25:14.845Z,7.57
2022-12-08T14:27:48.319Z,7.60
2022-12-08T14:30:24.022Z,7.20
2022-12-08T14:32:54.417Z,10.18
2022-12-08T14:35:34.604Z,7.30
2022-12-08T14:38:07.307Z,7.07
2022-12-08T14:40:37.089Z,7.18
2022-12-08T14:43:19.165Z,7.32
2022-12-08T14:45:56.384Z,7.88
2022-12-08T14:48:32.297Z,8.35
2022-12-08T14:51:04.178Z,8.50
2022-12-08T14:53:37.801Z,8.27
2022-12-08T14:56:15.203Z,7.95
2022-12-08T14:58:47.396Z,8.27
2022-12-08T15:01:18.575Z,9.27
2022-12-08T15:03:51.362Z,8.95
2022-12-08T15:06:24.843Z,9.27
2022-12-08T15:08:58.899Z,9.05
2022-12-08T15:11:37.928Z,9.23
2022-12-08T15:14:30.794Z,8.68
2022-12-08T15:16:59.257Z,8.65
2022-12-08T15:19:32.251Z,9.10
2022-12-08T15:24:43.888Z,9.43
2022-12-08T15:27:18.493Z,10.98
2022-12-08T15:29:51.268Z,9.90
2022-12-08T15:32:21.058Z,9.27
2022-12-08T15:34:49.931Z,9.23
2022-12-08T15:37:32.826Z,8.90
2022-12-08T15:40:04.122Z,9.45
2022-12-08T15:42:35.920Z,9.15
2022-12-08T15:45:16.583Z,9.32
2022-12-08T15:47:47.922Z,9.35
2022-12-08T15:50:19.286Z,9.23
2022-12-08T15:52:51.794Z,10.23
2022-12-08T15:55:23.636Z,9.35
2022-12-08T16:00:54.998Z,9.18
2022-12-08T16:07:04.836Z,9.88
2022-12-08T16:09:12.556Z,8.93
2022-12-08T16:12:09.071Z,9.30
2022-12-08T16:15:47.253Z,10.95
2022-12-08T16:17:31.626Z,10.68
2022-12-08T16:20:00.974Z,11.90
2022-12-08T16:25:27.344Z,10.35
2022-12-08T16:28:05.225Z,10.80
2022-12-08T16:30:44.537Z,11.95
2022-12-08T16:33:15.109Z,13.13
2022-12-08T16:35:47.082Z,12.70
2022-12-08T16:38:16.969Z,11.57
2022-12-08T16:41:06.147Z,10.93
2022-12-08T16:43:35.143Z,11.35
2022-12-08T16:46:07.544Z,12.55
2022-12-08T16:48:40.741Z,12.60
2022-12-08T16:51:18.797Z,10.80
2022-12-08T16:53:52.623Z,10.65
2022-12-08T16:56:31.887Z,11.18
2022-12-08T16:59:04.142Z,11.32
2022-12-08T17:01:32.823Z,12.27
2022-12-08T17:04:34.411Z,11.38
2022-12-08T17:07:03.920Z,11.63
2022-12-08T17:09:39.893Z,11.38
2022-12-08T17:12:08.451Z,10.25
2022-12-08T17:14:39.960Z,9.98
2022-12-08T17:17:11.712Z,10.55
2022-12-08T17:19:43.979Z,10.27
2022-12-08T17:22:16.127Z,10.70
2022-12-08T17:24:47.044Z,10.70
2022-12-08T17:27:23.005Z,11.95
2022-12-08T17:29:54.451Z,11.05
2022-12-08T17:32:25.520Z,11.68
2022-12-08T17:34:59.227Z,10.88
2022-12-08T17:37:32.012Z,9.65
2022-12-08T17:40:03.422Z,9.25
2022-12-08T17:42:45.135Z,9.35
2022-12-08T17:45:16.331Z,9.07
2022-12-08T17:47:45.046Z,8.73
2022-12-08T17:50:15.003Z,9.05
2022-12-08T17:52:43.549Z,9.40
2022-12-08T17:55:12.359Z,8.77
2022-12-08T17:57:41.469Z,8.63
2022-12-08T18:00:12.250Z,9.23
2022-12-08T18:02:40.832Z,8.23
2022-12-08T18:05:12.774Z,8.43
2022-12-08T18:07:44.262Z,8.48
2022-12-08T18:10:15.642Z,8.57
2022-12-08T18:12:46.171Z,9.38
2022-12-08T18:15:19.851Z,9.95
2022-12-08T18:17:51.136Z,8.90
2022-12-08T18:20:19.928Z,9.77
2022-12-08T18:22:50.847Z,9.25
2022-12-08T18:25:19.620Z,10.32
2022-12-08T18:27:48.277Z,10.98
2022-12-08T18:30:18.034Z,10.95
2022-12-08T18:32:49.875Z,11.30
2022-12-08T18:35:21.603Z,10.05
2022-12-08T18:37:52.025Z,9.75
2022-12-08T18:40:20.706Z,9.43
2022-12-08T18:42:49.422Z,10.00
2022-12-08T18:45:22.575Z,8.20
2022-12-08T18:47:51.790Z,8.80
2022-12-08T18:50:25.998Z,9.18
2022-12-08T18:52:55.935Z,9.40
2022-12-08T18:55:24.402Z,10.15
2022-12-08T18:57:53.019Z,9.63
2022-12-08T19:00:22.057Z,11.55
2022-12-08T19:02:50.706Z,10.32
2022-12-08T19:05:19.448Z,11.20
2022-12-08T19:07:48.005Z,10.40
2022-12-08T19:10:18.165Z,9.77
2022-12-08T19:12:46.764Z,9.90
2022-12-08T19:15:15.308Z,10.25
2022-12-08T19:17:43.740Z,9.38
2022-12-08T19:20:12.866Z,9.52
2022-12-08T19:22:41.522Z,8.63
2022-12-08T19:25:10.432Z,8.27
2022-12-08T19:27:41.541Z,7.93
2022-12-08T19:30:11.973Z,8.60
2022-12-08T19:32:43.766Z,8.95
2022-12-08T19:35:12.469Z,9.65
2022-12-08T19:37:41.062Z,9.20
2022-12-08T19:40:27.646Z,8.98
2022-12-08T19:43:15.631Z,9.70
2022-12-08T19:45:44.332Z,9.00
2022-12-08T19:48:14.076Z,9.50
2022-12-08T19:50:42.798Z,9.95
2022-12-08T19:53:12.249Z,9.30
2022-12-08T19:55:41.332Z,9.10
2022-12-08T19:58:11.410Z,9.70
2022-12-08T20:00:41.178Z,10.77
2022-12-08T20:03:09.764Z,9.60
2022-12-08T20:05:38.833Z,9.23
2022-12-08T20:08:07.734Z,10.85
2022-12-08T20:10:37.284Z,10.55
2022-12-08T20:13:24.048Z,11.43
2022-12-08T20:15:54.295Z,11.45
2022-12-08T20:18:23.376Z,10.82
2022-12-08T20:20:53.171Z,11.95
2022-12-08T20:23:24.272Z,11.38
2022-12-08T20:25:52.765Z,15.15
2022-12-08T20:28:21.389Z,14.35
2022-12-08T20:30:50.145Z,12.98
2022-12-08T20:33:20.707Z,12.80
2022-12-08T20:35:50.820Z,13.45
2022-12-08T20:38:22.186Z,13.47
2022-12-08T20:40:51.018Z,13.20
2022-12-08T20:43:19.438Z,11.90
2022-12-08T20:45:47.964Z,12.63
2022-12-08T20:48:16.951Z,12.30
2022-12-08T20:50:50.291Z,13.43
2022-12-08T20:53:21.269Z,13.45
2022-12-08T20:55:49.911Z,14.10
2022-12-08T20:58:18.618Z,13.52
2022-12-08T21:00:47.459Z,14.20
2022-12-08T21:03:17.628Z,16.88
2022-12-08T21:05:55.261Z,15.40
2022-12-08T21:08:44.368Z,16.88
2022-12-08T21:11:13.107Z,13.90
2022-12-08T21:13:43.474Z,12.95
2022-12-08T21:16:13.955Z,13.13
2022-12-08T21:18:42.870Z,13.18
2022-12-08T21:21:14.302Z,13.02
2022-12-08T21:23:43.197Z,11.80
2022-12-08T21:26:13.733Z,12.00
2022-12-08T21:28:42.696Z,12.65
2022-12-08T21:31:11.665Z,12.50
2022-12-08T21:33:40.888Z,12.65
2022-12-08T21:36:10.521Z,12.05
2022-12-08T21:38:41.258Z,12.98
2022-12-08T21:41:13.584Z,13.05
2022-12-08T21:43:42.493Z,11.43
2022-12-08T21:46:16.835Z,12.70
2022-12-08T21:48:52.089Z,11.80
2022-12-08T21:51:30.794Z,12.88
2022-12-08T21:54:04.619Z,11.93
2022-12-08T21:56:35.270Z,11.60
2022-12-08T21:59:10.045Z,12.35
2022-12-08T22:01:38.981Z,15.77
2022-12-08T22:04:07.915Z,15.25
2022-12-08T22:06:36.620Z,14.02
2022-12-08T22:09:07.332Z,13.10
2022-12-08T22:11:37.570Z,14.50
2022-12-08T22:14:10.881Z,13.18
2022-12-08T22:16:43.285Z,13.15
2022-12-08T22:19:12.218Z,12.30
2022-12-08T22:21:41.695Z,15.93
2022-12-08T22:24:14.492Z,13.00
2022-12-08T22:26:43.532Z,12.88
2022-12-08T22:29:12.584Z,12.48
2022-12-08T22:31:41.847Z,12.30
2022-12-08T22:34:10.654Z,12.05
2022-12-08T22:36:39.437Z,11.60
2022-12-08T22:39:13.261Z,11.25
2022-12-08T22:41:43.728Z,11.98
2022-12-08T22:44:14.025Z,12.25
2022-12-08T22:46:42.873Z,12.02
2022-12-08T22:49:11.663Z,11.57
2022-12-08T22:51:40.853Z,11.63
2022-12-08T22:54:11.621Z,10.73
2022-12-08T22:56:40.632Z,11.18
2022-12-08T22:59:10.808Z,10.65
2022-12-08T23:01:39.661Z,11.30
2022-12-08T23:04:15.793Z,11.50
2022-12-08T23:06:47.335Z,11.50
2022-12-08T23:09:16.182Z,11.68
2022-12-08T23:11:45.486Z,11.75
2022-12-08T23:14:15.620Z,11.15
2022-12-08T23:16:44.259Z,11.45
2022-12-08T23:19:13.012Z,12.45
2022-12-08T23:21:42.158Z,10.85
2022-12-08T23:24:10.820Z,10.80
2022-12-08T23:26:39.508Z,11.80
2022-12-08T23:29:08.009Z,11.77
2022-12-08T23:31:39.197Z,11.35
2022-12-08T23:34:08.056Z,12.13
2022-12-08T23:36:36.714Z,11.90
2022-12-08T23:39:05.998Z,11.93
2022-12-08T23:41:34.733Z,12.20
2022-12-08T23:44:03.365Z,13.02
2022-12-08T23:46:32.044Z,12.27
2022-12-08T23:49:02.400Z,11.70
2022-12-08T23:51:31.195Z,11.85
2022-12-08T23:53:59.727Z,11.68
2022-12-08T23:56:30.441Z,11.02
2022-12-08T23:58:59.457Z,11.55
